Time;durP1;ratioP1;P1;durP2;ratioP2;P2;SDS_P1;SDS_P2;PMS_P1;PMS_P2;Temp;Humidity;BMP_temperature;BMP_pressure;BME280_temperature;BME280_humidity;BME280_pressure;Samples;Min_cycle;Max_cycle;Signal;HPM_P1;HPM_P2
2021/09/11 00:01:47;;;;;;;6.82;2.88;;;18.60;94.60;;;;;;5094635;28;20016;-74
2021/09/11 00:04:13;;;;;;;5.10;3.47;;;18.60;94.50;;;;;;5092365;28;20027;-74
2021/09/11 00:06:38;;;;;;;5.95;3.30;;;18.60;94.60;;;;;;5094188;28;20350;-75
2021/09/11 00:09:04;;;;;;;7.05;4.65;;;18.50;94.60;;;;;;5094071;28;20035;-74
2021/09/11 00:11:29;;;;;;;6.68;3.38;;;18.50;94.60;;;;;;5093754;28;20035;-73
2021/09/11 00:13:55;;;;;;;6.45;3.80;;;18.50;94.60;;;;;;5093004;28;20020;-73
2021/09/11 00:16:20;;;;;;;6.38;3.65;;;18.50;94.60;;;;;;5094049;28;20028;-73
2021/09/11 00:18:46;;;;;;;5.85;2.88;;;18.50;94.60;;;;;;5091992;28;20047;-73
2021/09/11 00:21:12;;;;;;;7.03;3.45;;;18.40;94.60;;;;;;5093623;28;20056;-73
2021/09/11 00:23:38;;;;;;;6.68;3.33;;;18.40;94.60;;;;;;5094092;28;20381;-73
2021/09/11 00:26:04;;;;;;;4.75;2.97;;;18.40;94.60;;;;;;5093598;28;20030;-73
2021/09/11 00:28:29;;;;;;;6.03;3.50;;;18.50;94.60;;;;;;5093719;28;20028;-73
2021/09/11 00:30:55;;;;;;;6.78;3.42;;;18.50;94.60;;;;;;5093051;28;20101;-73
2021/09/11 00:33:20;;;;;;;7.18;4.63;;;18.40;94.50;;;;;;5093864;28;20031;-73
2021/09/11 00:35:46;;;;;;;6.82;3.67;;;18.40;94.50;;;;;;5093446;28;20550;-73
2021/09/11 00:38:11;;;;;;;6.53;4.28;;;18.40;94.50;;;;;;5091586;28;20468;-75
2021/09/11 00:40:37;;;;;;;6.28;3.20;;;18.40;94.60;;;;;;5093778;28;20035;-74
2021/09/11 00:43:03;;;;;;;8.80;4.90;;;18.30;94.60;;;;;;5093624;28;20519;-74
2021/09/11 00:45:28;;;;;;;7.55;4.05;;;18.30;94.60;;;;;;5093361;28;20030;-74
2021/09/11 00:47:53;;;;;;;6.28;3.22;;;18.30;94.60;;;;;;5093486;28;20023;-74
2021/09/11 00:50:20;;;;;;;7.63;3.67;;;18.30;94.60;;;;;;5093119;28;20404;-74
2021/09/11 00:52:48;;;;;;;6.40;3.40;;;18.30;94.60;;;;;;5093889;28;20016;-75
2021/09/11 00:55:15;;;;;;;6.10;3.55;;;18.40;94.60;;;;;;5091869;28;20028;-75
2021/09/11 00:57:43;;;;;;;5.75;3.33;;;18.30;94.50;;;;;;5093267;28;20027;-74
2021/09/11 01:00:10;;;;;;;6.03;3.83;;;18.30;94.50;;;;;;5093197;28;20392;-74
2021/09/11 01:02:35;;;;;;;5.63;3.15;;;18.30;94.50;;;;;;5093274;28;20039;-74
2021/09/11 01:05:07;;;;;;;6.05;3.65;;;18.30;94.50;;;;;;5093583;28;20416;-75
2021/09/11 01:07:34;;;;;;;6.50;3.58;;;18.30;94.50;;;;;;5093212;28;20474;-74
2021/09/11 01:10:01;;;;;;;6.45;3.88;;;18.30;94.50;;;;;;5093498;28;20469;-74
2021/09/11 01:12:27;;;;;;;6.68;3.58;;;18.30;94.40;;;;;;5093258;28;20176;-73
2021/09/11 01:14:53;;;;;;;6.85;3.88;;;18.30;94.40;;;;;;5091672;28;20396;-73
2021/09/11 01:17:19;;;;;;;6.70;3.90;;;18.30;94.40;;;;;;5091188;28;20016;-73
2021/09/11 01:19:44;;;;;;;5.22;3.03;;;18.20;94.40;;;;;;5092484;28;20439;-74
2021/09/11 01:22:14;;;;;;;5.57;3.28;;;18.20;94.30;;;;;;5093214;28;20055;-74
2021/09/11 01:25:00;;;;;;;5.88;3.58;;;18.20;94.30;;;;;;5093152;28;20137;-73
2021/09/11 01:27:27;;;;;;;5.15;2.83;;;18.10;94.30;;;;;;5091391;28;20020;-74
2021/09/11 01:29:59;;;;;;;4.63;2.55;;;18.10;94.40;;;;;;5092396;28;20046;-74
2021/09/11 01:32:25;;;;;;;5.75;3.65;;;18.10;94.40;;;;;;5093061;28;20024;-74
2021/09/11 01:34:51;;;;;;;6.22;3.55;;;18.00;94.40;;;;;;5092893;28;20045;-74
2021/09/11 01:37:18;;;;;;;7.25;4.13;;;18.00;94.40;;;;;;5091361;28;20032;-74
2021/09/11 01:39:47;;;;;;;5.80;3.65;;;18.00;94.40;;;;;;5092883;28;20415;-74
2021/09/11 01:42:18;;;;;;;7.78;3.55;;;17.90;94.40;;;;;;5093259;28;20023;-74
2021/09/11 01:44:50;;;;;;;6.78;3.83;;;17.90;94.40;;;;;;5092735;28;20411;-74
2021/09/11 01:47:16;;;;;;;8.13;4.47;;;17.80;94.40;;;;;;5091954;28;20024;-73
2021/09/11 01:49:42;;;;;;;7.55;4.65;;;17.70;94.40;;;;;;5095425;28;20051;-74
2021/09/11 01:52:08;;;;;;;6.25;3.72;;;17.70;94.40;;;;;;5096678;28;20095;-74
2021/09/11 01:54:34;;;;;;;5.80;3.10;;;17.70;94.40;;;;;;5097060;28;20396;-74
2021/09/11 01:57:00;;;;;;;6.22;3.47;;;17.70;94.70;;;;;;5096545;28;20519;-74
2021/09/11 01:59:25;;;;;;;7.18;4.03;;;17.70;94.30;;;;;;5096122;28;20598;-74
2021/09/11 02:01:51;;;;;;;5.90;3.42;;;17.60;94.30;;;;;;5096604;28;20032;-74
2021/09/11 02:04:16;;;;;;;4.85;2.50;;;17.60;94.30;;;;;;5096501;28;20028;-73
2021/09/11 02:06:42;;;;;;;5.28;3.15;;;17.60;94.30;;;;;;5096363;28;20081;-73
2021/09/11 02:09:08;;;;;;;5.18;3.10;;;17.60;94.30;;;;;;5096918;28;20024;-74
2021/09/11 02:11:33;;;;;;;5.43;2.55;;;17.60;94.20;;;;;;5095195;28;20088;-73
2021/09/11 02:13:59;;;;;;;5.03;2.95;;;17.60;94.20;;;;;;5096522;28;20055;-73
2021/09/11 02:16:24;;;;;;;5.57;2.85;;;17.60;94.20;;;;;;5095921;28;20111;-73
2021/09/11 02:18:50;;;;;;;4.95;2.60;;;17.60;94.20;;;;;;5095807;28;20035;-73
2021/09/11 02:21:15;;;;;;;4.13;2.33;;;17.50;94.10;;;;;;5094739;28;20055;-73
2021/09/11 02:23:41;;;;;;;4.97;3.15;;;17.50;94.10;;;;;;5096672;28;20058;-73
2021/09/11 02:26:06;;;;;;;3.63;2.38;;;17.50;94.10;;;;;;5094990;28;20019;-74
2021/09/11 02:28:32;;;;;;;5.47;2.58;;;17.50;94.10;;;;;;5094309;28;20027;-72
2021/09/11 02:30:57;;;;;;;6.95;3.50;;;17.40;94.10;;;;;;5096129;28;20426;-73
2021/09/11 02:33:23;;;;;;;5.50;2.95;;;17.40;94.10;;;;;;5095922;28;20044;-73
2021/09/11 02:35:48;;;;;;;5.18;2.65;;;17.40;94.20;;;;;;5096126;28;20013;-73
2021/09/11 02:38:15;;;;;;;4.10;2.40;;;17.30;94.20;;;;;;5095738;28;20103;-73
2021/09/11 02:40:40;;;;;;;4.57;3.22;;;17.30;94.10;;;;;;5096033;28;20089;-74
2021/09/11 02:43:06;;;;;;;4.50;2.55;;;17.30;94.20;;;;;;5095330;28;20016;-73
2021/09/11 02:45:31;;;;;;;4.97;2.72;;;17.30;94.20;;;;;;5095923;28;20032;-74
2021/09/11 02:47:57;;;;;;;4.85;2.58;;;17.30;94.20;;;;;;5095348;28;20016;-74
2021/09/11 02:50:22;;;;;;;4.13;2.20;;;17.20;94.20;;;;;;5095944;28;20473;-75
2021/09/11 02:52:48;;;;;;;3.42;1.95;;;17.20;94.20;;;;;;5094448;28;20031;-74
2021/09/11 02:55:13;;;;;;;4.72;2.53;;;17.20;94.20;;;;;;5095629;28;20031;-73
2021/09/11 02:57:39;;;;;;;4.95;3.03;;;17.20;94.20;;;;;;5095353;28;20377;-74
2021/09/11 03:00:05;;;;;;;5.35;3.47;;;17.10;94.20;;;;;;5094184;28;20036;-74
2021/09/11 03:02:31;;;;;;;6.47;3.47;;;17.10;94.20;;;;;;5095412;28;20031;-73
2021/09/11 03:04:56;;;;;;;5.00;2.30;;;17.10;94.20;;;;;;5095420;28;20032;-73
2021/09/11 03:07:22;;;;;;;4.65;2.35;;;17.00;94.20;;;;;;5095551;28;20027;-73
2021/09/11 03:09:47;;;;;;;4.22;2.50;;;17.00;94.20;;;;;;5095456;28;20047;-74
2021/09/11 03:12:13;;;;;;;3.55;2.33;;;17.00;94.20;;;;;;5095263;28;20028;-73
2021/09/11 03:14:38;;;;;;;3.92;2.38;;;17.00;94.10;;;;;;5095166;28;20016;-73
2021/09/11 03:17:04;;;;;;;5.30;2.40;;;17.00;94.10;;;;;;5094577;28;20064;-73
2021/09/11 03:19:29;;;;;;;3.72;2.20;;;17.00;94.20;;;;;;5095104;28;20028;-74
2021/09/11 03:21:55;;;;;;;5.45;2.67;;;17.00;94.10;;;;;;5093590;28;20059;-73
2021/09/11 03:24:21;;;;;;;4.75;2.53;;;16.90;94.10;;;;;;5094096;28;20016;-73
2021/09/11 03:26:46;;;;;;;4.15;2.40;;;16.90;94.10;;;;;;5093302;28;20028;-74
2021/09/11 03:29:12;;;;;;;4.50;2.30;;;16.90;94.10;;;;;;5093827;28;20050;-74
2021/09/11 03:31:37;;;;;;;4.65;2.50;;;16.90;94.10;;;;;;5094578;28;20020;-74
2021/09/11 03:34:03;;;;;;;6.05;2.92;;;16.90;94.10;;;;;;5093711;28;20035;-72
2021/09/11 03:36:28;;;;;;;4.15;2.28;;;16.90;94.10;;;;;;5093712;28;20059;-74
2021/09/11 03:38:54;;;;;;;4.65;2.92;;;16.80;94.10;;;;;;5094578;28;20533;-73
2021/09/11 03:41:19;;;;;;;4.25;2.65;;;16.80;94.10;;;;;;5093064;28;20055;-73
2021/09/11 03:43:45;;;;;;;5.15;2.55;;;16.80;94.10;;;;;;5095038;28;20325;-74
2021/09/11 03:46:10;;;;;;;6.85;2.83;;;16.80;94.10;;;;;;5094708;28;20465;-73
2021/09/11 03:48:36;;;;;;;2.97;2.03;;;16.80;94.10;;;;;;5092510;28;20016;-73
2021/09/11 03:51:02;;;;;;;4.45;2.40;;;16.80;94.10;;;;;;5094743;28;20043;-74
2021/09/11 03:53:28;;;;;;;4.25;2.70;;;16.80;94.00;;;;;;5094373;28;20387;-73
2021/09/11 03:55:53;;;;;;;5.32;2.70;;;16.80;94.00;;;;;;5092797;28;20119;-73
2021/09/11 03:58:19;;;;;;;4.78;2.60;;;16.80;94.00;;;;;;5094235;28;20023;-73
2021/09/11 04:00:45;;;;;;;5.30;2.85;;;16.80;94.00;;;;;;5092667;28;20043;-73
2021/09/11 04:03:10;;;;;;;5.72;3.22;;;16.80;94.00;;;;;;5094494;28;20021;-73
2021/09/11 04:05:36;;;;;;;7.22;2.90;;;16.70;94.00;;;;;;5093071;28;20073;-73
2021/09/11 04:08:02;;;;;;;5.78;2.75;;;16.70;94.10;;;;;;5094652;28;20028;-74
2021/09/11 04:10:27;;;;;;;5.20;3.25;;;16.70;94.10;;;;;;5093778;28;20073;-73
2021/09/11 04:12:53;;;;;;;6.03;3.28;;;16.70;94.20;;;;;;5093314;28;20089;-73
2021/09/11 04:15:18;;;;;;;5.68;2.85;;;16.70;94.20;;;;;;5094112;28;20468;-73
2021/09/11 04:17:44;;;;;;;5.10;2.85;;;16.70;94.10;;;;;;5093279;28;20032;-74
2021/09/11 04:20:10;;;;;;;4.68;2.67;;;16.70;94.10;;;;;;5093769;28;20518;-73
2021/09/11 04:22:35;;;;;;;6.00;3.00;;;16.70;94.10;;;;;;5093648;28;20052;-73
2021/09/11 04:25:01;;;;;;;7.30;3.63;;;16.80;94.10;;;;;;5092219;28;20036;-73
2021/09/11 04:27:27;;;;;;;5.57;3.17;;;16.80;94.10;;;;;;5094374;28;20107;-73
2021/09/11 04:29:52;;;;;;;4.80;3.08;;;16.80;94.10;;;;;;5093602;28;20092;-73
2021/09/11 04:32:18;;;;;;;5.15;2.90;;;16.80;94.00;;;;;;5093566;28;20024;-73
2021/09/11 04:34:43;;;;;;;5.32;2.92;;;16.80;94.00;;;;;;5093884;28;20024;-73
2021/09/11 04:37:08;;;;;;;6.00;3.45;;;16.90;94.30;;;;;;5093863;28;20483;-73
2021/09/11 04:39:34;;;;;;;5.50;2.88;;;16.90;94.10;;;;;;5093280;28;20032;-74
2021/09/11 04:41:59;;;;;;;5.28;3.33;;;16.80;94.10;;;;;;5093738;28;20020;-73
2021/09/11 04:44:27;;;;;;;5.93;3.47;;;16.80;94.10;;;;;;5093776;28;20542;-74
2021/09/11 04:46:53;;;;;;;8.40;4.32;;;16.80;94.10;;;;;;5093831;28;20024;-74
2021/09/11 04:49:18;;;;;;;5.05;3.15;;;16.80;94.10;;;;;;5093795;28;20028;-73
2021/09/11 04:51:44;;;;;;;6.82;3.97;;;16.90;94.20;;;;;;5093794;28;20026;-73
2021/09/11 04:54:09;;;;;;;6.03;4.05;;;16.80;94.10;;;;;;5093194;28;20543;-72
2021/09/11 04:56:35;;;;;;;5.72;3.50;;;16.80;94.20;;;;;;5093800;28;20091;-73
2021/09/11 04:59:00;;;;;;;6.72;3.38;;;16.90;94.20;;;;;;5093477;28;20047;-73
2021/09/11 05:01:26;;;;;;;5.50;3.25;;;16.90;94.20;;;;;;5093603;28;20027;-73
2021/09/11 05:03:51;;;;;;;5.32;3.22;;;16.80;94.10;;;;;;5093498;28;20499;-73
2021/09/11 05:06:17;;;;;;;6.10;3.42;;;16.80;94.20;;;;;;5093619;28;20036;-73
2021/09/11 05:08:42;;;;;;;5.85;3.00;;;16.90;94.20;;;;;;5092959;28;20389;-73
2021/09/11 05:11:08;;;;;;;5.20;3.03;;;16.90;94.10;;;;;;5092188;28;20483;-71
2021/09/11 05:13:34;;;;;;;5.68;3.00;;;16.90;94.10;;;;;;5093385;28;20023;-72
2021/09/11 05:15:59;;;;;;;6.53;3.22;;;16.90;94.10;;;;;;5093392;28;20016;-72
2021/09/11 05:18:25;;;;;;;6.25;3.15;;;16.90;94.10;;;;;;5092164;28;20020;-72
2021/09/11 05:20:51;;;;;;;5.53;3.05;;;16.90;94.10;;;;;;5092252;28;20052;-73
2021/09/11 05:23:16;;;;;;;3.97;2.65;;;16.90;94.10;;;;;;5094314;28;20020;-73
2021/09/11 05:25:42;;;;;;;4.15;2.35;;;16.90;94.10;;;;;;5098353;28;20483;-72
2021/09/11 05:28:07;;;;;;;4.68;2.53;;;16.90;94.10;;;;;;5098317;28;20020;-71
2021/09/11 05:30:33;;;;;;;5.00;2.97;;;17.00;94.10;;;;;;5098725;28;20023;-79
2021/09/11 05:32:59;;;;;;;5.68;2.67;;;17.00;94.10;;;;;;5099727;28;20020;-75
2021/09/11 05:35:24;;;;;;;4.38;2.45;;;17.00;94.00;;;;;;5099337;28;20388;-74
2021/09/11 05:37:50;;;;;;;4.18;2.83;;;17.00;94.00;;;;;;5098538;28;20024;-74
2021/09/11 05:40:16;;;;;;;4.60;2.72;;;17.10;94.00;;;;;;5099458;28;20036;-74
2021/09/11 05:42:41;;;;;;;4.35;2.60;;;17.10;94.00;;;;;;5099885;28;20487;-75
2021/09/11 05:45:07;;;;;;;3.65;2.22;;;17.10;94.00;;;;;;5099684;28;20039;-74
2021/09/11 05:47:34;;;;;;;5.22;2.50;;;17.10;94.00;;;;;;5099897;28;20024;-75
2021/09/11 05:50:00;;;;;;;4.40;2.67;;;17.10;94.00;;;;;;5099285;28;20029;-77
2021/09/11 05:52:26;;;;;;;4.03;2.50;;;17.10;94.00;;;;;;5099593;28;20107;-75
2021/09/11 05:54:51;;;;;;;4.38;2.65;;;17.20;94.00;;;;;;5099769;28;20549;-75
2021/09/11 05:57:17;;;;;;;3.88;2.42;;;17.20;94.00;;;;;;5099393;28;20012;-75
2021/09/11 05:59:43;;;;;;;2.90;2.33;;;17.20;94.00;;;;;;5099712;28;20111;-74
2021/09/11 06:02:11;;;;;;;4.53;2.60;;;17.20;94.00;;;;;;5099394;28;20376;-74
2021/09/11 06:04:36;;;;;;;4.47;2.70;;;17.20;94.00;;;;;;5098976;28;20077;-74
2021/09/11 06:07:02;;;;;;;4.43;2.80;;;17.20;94.00;;;;;;5106915;28;20027;-75
2021/09/11 06:09:27;;;;;;;3.80;2.00;;;17.20;94.00;;;;;;5095191;28;20070;-75
2021/09/11 06:11:54;;;;;;;4.32;2.63;;;17.20;94.00;;;;;;5098149;28;20021;-75
2021/09/11 06:14:19;;;;;;;3.85;2.35;;;17.30;94.00;;;;;;5079322;28;20025;-75
2021/09/11 06:16:45;;;;;;;3.65;2.13;;;17.30;94.00;;;;;;5078156;28;20543;-75
2021/09/11 06:19:10;;;;;;;4.70;2.63;;;17.30;94.00;;;;;;5082442;28;20035;-75
2021/09/11 06:21:36;;;;;;;5.18;2.25;;;17.30;93.90;;;;;;5080172;28;20072;-76
2021/09/11 06:24:01;;;;;;;5.90;2.60;;;17.40;93.90;;;;;;5079977;28;20481;-75
2021/09/11 06:26:27;;;;;;;4.68;2.55;;;17.30;93.90;;;;;;5086157;28;20466;-75
2021/09/11 06:28:52;;;;;;;3.65;2.13;;;17.30;93.90;;;;;;5098264;28;20043;-74
2021/09/11 06:31:18;;;;;;;3.42;2.08;;;17.30;94.00;;;;;;5099509;28;20461;-75
2021/09/11 06:33:44;;;;;;;4.13;2.45;;;17.30;94.00;;;;;;5099019;28;20464;-75
2021/09/11 06:36:12;;;;;;;3.88;2.08;;;17.30;94.00;;;;;;5094922;28;20021;-76
2021/09/11 06:38:38;;;;;;;3.28;2.20;;;17.40;94.00;;;;;;5085048;28;20031;-75
2021/09/11 06:41:04;;;;;;;4.60;2.28;;;17.40;93.90;;;;;;5091106;28;20099;-75
2021/09/11 06:43:29;;;;;;;3.78;2.10;;;17.40;94.00;;;;;;5092886;28;20012;-75
2021/09/11 06:45:55;;;;;;;4.22;2.95;;;17.40;93.90;;;;;;5095936;28;20024;-75
2021/09/11 06:48:20;;;;;;;4.60;2.90;;;17.40;93.90;;;;;;5095062;28;20020;-75
2021/09/11 06:50:46;;;;;;;6.18;3.22;;;17.40;93.90;;;;;;5095876;28;20024;-74
2021/09/11 06:53:11;;;;;;;3.63;2.60;;;17.40;94.00;;;;;;5093725;28;20059;-74
2021/09/11 06:55:37;;;;;;;3.92;2.53;;;17.50;94.00;;;;;;5093395;28;20123;-76
2021/09/11 06:58:02;;;;;;;4.70;2.78;;;17.50;93.90;;;;;;5079244;28;20415;-75
2021/09/11 07:00:28;;;;;;;3.53;2.20;;;17.60;93.90;;;;;;5075501;28;20032;-75
2021/09/11 07:02:56;;;;;;;4.13;2.42;;;17.60;93.90;;;;;;5089196;28;20070;-76
2021/09/11 07:05:22;;;;;;;3.03;1.77;;;17.60;93.90;;;;;;5094230;28;20102;-74
2021/09/11 07:07:48;;;;;;;3.13;1.95;;;17.60;93.90;;;;;;5090983;28;20278;-73
2021/09/11 07:10:13;;;;;;;4.68;2.75;;;17.60;93.90;;;;;;5075413;28;20047;-75
2021/09/11 07:12:39;;;;;;;3.80;2.28;;;17.70;93.90;;;;;;5075274;28;20035;-74
2021/09/11 07:15:05;;;;;;;3.63;2.63;;;17.70;93.90;;;;;;5075422;28;20048;-76
2021/09/11 07:17:31;;;;;;;6.30;3.38;;;17.70;93.90;;;;;;5076799;28;20123;-75
2021/09/11 07:19:56;;;;;;;4.07;2.45;;;17.70;93.90;;;;;;5080667;28;20535;-74
2021/09/11 07:22:22;;;;;;;3.80;2.40;;;17.70;93.90;;;;;;5086039;28;20126;-73
2021/09/11 07:24:47;;;;;;;4.20;2.67;;;17.80;93.90;;;;;;5093946;28;20020;-72
2021/09/11 07:27:13;;;;;;;2.67;2.05;;;17.80;93.90;;;;;;5095124;28;20472;-74
2021/09/11 07:29:39;;;;;;;3.80;2.35;;;17.90;93.90;;;;;;5094013;28;20024;-74
2021/09/11 07:32:05;;;;;;;3.35;2.25;;;18.00;93.90;;;;;;5094697;28;20020;-74
2021/09/11 07:34:31;;;;;;;2.83;2.05;;;18.00;93.80;;;;;;5087231;28;20565;-74
2021/09/11 07:36:57;;;;;;;4.93;2.65;;;18.10;93.80;;;;;;5086291;28;20435;-75
2021/09/11 07:39:22;;;;;;;2.92;2.03;;;18.20;93.70;;;;;;5094135;28;20093;-73
2021/09/11 07:41:48;;;;;;;3.33;2.40;;;18.20;93.70;;;;;;5094946;28;20028;-73
2021/09/11 07:44:13;;;;;;;3.90;2.15;;;18.20;93.70;;;;;;5077984;28;20067;-74
2021/09/11 07:46:39;;;;;;;3.45;2.63;;;18.30;93.70;;;;;;5088820;28;20024;-74
2021/09/11 07:49:04;;;;;;;3.25;2.20;;;18.40;93.70;;;;;;5094859;28;20074;-74
2021/09/11 07:51:30;;;;;;;3.17;2.08;;;18.50;93.60;;;;;;5093562;28;20410;-74
2021/09/11 07:53:56;;;;;;;3.25;1.90;;;18.50;93.60;;;;;;5094833;28;20020;-74
2021/09/11 07:56:21;;;;;;;3.10;1.90;;;18.60;93.60;;;;;;5094683;28;20036;-74
2021/09/11 07:58:47;;;;;;;3.10;2.33;;;18.60;93.60;;;;;;5094600;28;20488;-73
2021/09/11 08:01:12;;;;;;;3.67;2.10;;;18.60;93.60;;;;;;5080657;28;20029;-74
2021/09/11 08:03:38;;;;;;;3.80;2.53;;;18.60;93.60;;;;;;5094837;28;20103;-73
2021/09/11 08:06:07;;;;;;;5.05;2.38;;;18.70;93.60;;;;;;5089941;28;20024;-76
2021/09/11 08:08:37;;;;;;;3.50;2.25;;;18.70;93.60;;;;;;5093272;28;20031;-77
2021/09/11 08:11:06;;;;;;;3.38;2.15;;;18.70;93.50;;;;;;5094132;28;20058;-76
2021/09/11 08:13:31;;;;;;;3.65;2.45;;;18.60;93.60;;;;;;5094362;28;20032;-77
2021/09/11 08:15:57;;;;;;;4.65;2.90;;;18.60;93.60;;;;;;5093941;28;20091;-76
2021/09/11 08:18:24;;;;;;;4.43;3.08;;;18.60;93.60;;;;;;5089490;28;20485;-76
2021/09/11 08:20:51;;;;;;;4.38;3.00;;;18.60;93.60;;;;;;5093918;28;20117;-76
2021/09/11 08:23:18;;;;;;;5.70;3.53;;;18.60;93.70;;;;;;5093920;28;20047;-73
2021/09/11 08:25:45;;;;;;;4.28;2.50;;;18.70;93.70;;;;;;5094034;28;20070;-75
2021/09/11 08:28:11;;;;;;;4.65;2.90;;;18.70;93.60;;;;;;5094147;28;20024;-76
2021/09/11 08:30:37;;;;;;;4.20;2.95;;;18.90;93.60;;;;;;5092559;28;20027;-76
2021/09/11 08:33:02;;;;;;;3.78;2.53;;;18.90;93.50;;;;;;5090267;28;20035;-76
2021/09/11 08:35:28;;;;;;;4.78;3.33;;;19.00;93.50;;;;;;5093809;28;20495;-76
2021/09/11 08:37:53;;;;;;;4.53;3.03;;;19.00;93.40;;;;;;5089290;28;20020;-76
2021/09/11 08:40:21;;;;;;;4.43;2.83;;;19.00;93.50;;;;;;5093653;28;20089;-75
2021/09/11 08:42:46;;;;;;;3.25;2.30;;;19.00;93.50;;;;;;5093825;28;20020;-74
2021/09/11 08:45:15;;;;;;;4.25;2.88;;;19.00;93.50;;;;;;5093301;28;20024;-74
2021/09/11 08:47:43;;;;;;;4.20;2.50;;;19.00;93.50;;;;;;5092579;28;20020;-74
2021/09/11 08:50:09;;;;;;;3.78;2.70;;;19.10;93.50;;;;;;5073559;28;20031;-73
2021/09/11 08:52:35;;;;;;;4.35;3.20;;;19.10;93.50;;;;;;5071684;28;20025;-73
2021/09/11 08:55:00;;;;;;;3.85;2.70;;;19.00;93.50;;;;;;5072186;28;20151;-73
2021/09/11 08:57:27;;;;;;;4.70;3.10;;;19.00;93.50;;;;;;5073351;28;20048;-73
2021/09/11 08:59:54;;;;;;;5.22;3.22;;;19.00;93.60;;;;;;5072310;28;20033;-73
2021/09/11 09:02:22;;;;;;;4.45;2.83;;;19.00;93.60;;;;;;5073268;28;20029;-74
2021/09/11 09:04:52;;;;;;;5.82;3.97;;;19.00;93.50;;;;;;5073017;28;20017;-74
2021/09/11 09:07:33;;;;;;;5.35;2.83;;;19.10;93.50;;;;;;5073345;28;20020;-73
2021/09/11 09:10:00;;;;;;;6.32;4.53;;;19.20;93.50;;;;;;5073343;28;20028;-75
2021/09/11 09:12:35;;;;;;;6.22;3.50;;;19.10;93.40;;;;;;5073228;28;20016;-74
2021/09/11 09:15:05;;;;;;;4.75;3.63;;;19.10;93.50;;;;;;5072774;28;20070;-74
2021/09/11 09:17:45;;;;;;;5.60;3.90;;;19.20;93.50;;;;;;5073170;28;20028;-74
2021/09/11 09:20:31;;;;;;;4.53;3.13;;;19.20;93.40;;;;;;5073380;28;20515;-74
2021/09/11 09:23:00;;;;;;;5.00;3.63;;;19.20;93.40;;;;;;5071769;28;20060;-74
2021/09/11 09:25:33;;;;;;;6.57;3.55;;;19.10;93.50;;;;;;5073020;28;20533;-74
2021/09/11 09:28:01;;;;;;;4.93;3.20;;;19.10;93.50;;;;;;5072662;28;20025;-74
2021/09/11 09:30:36;;;;;;;5.10;3.53;;;19.10;93.50;;;;;;5073049;28;20392;-74
2021/09/11 09:33:02;;;;;;;5.22;3.08;;;19.10;93.50;;;;;;5071918;28;20032;-74
2021/09/11 09:35:27;;;;;;;6.10;3.60;;;19.10;93.50;;;;;;5072911;28;20020;-74
2021/09/11 09:38:07;;;;;;;4.47;2.95;;;19.20;93.50;;;;;;5071674;28;20416;-74
2021/09/11 09:40:48;;;;;;;5.68;3.30;;;19.20;93.50;;;;;;5071599;28;20024;-74
2021/09/11 09:43:38;;;;;;;5.15;3.22;;;19.20;93.50;;;;;;5072559;28;20415;-74
2021/09/11 09:46:06;;;;;;;5.38;3.35;;;19.30;93.50;;;;;;5072731;28;20024;-74
2021/09/11 09:48:34;;;;;;;5.43;3.22;;;19.30;93.50;;;;;;5072923;28;20384;-72
2021/09/11 09:51:05;;;;;;;5.93;3.33;;;19.30;93.40;;;;;;5072925;28;20017;-73
2021/09/11 09:53:31;;;;;;;5.97;4.00;;;19.30;93.40;;;;;;5072833;28;20032;-74
2021/09/11 09:55:57;;;;;;;5.50;3.33;;;19.30;93.40;;;;;;5072823;28;20082;-73
2021/09/11 09:58:23;;;;;;;3.53;2.80;;;19.30;93.40;;;;;;5071012;28;20474;-73
2021/09/11 10:00:49;;;;;;;4.63;3.20;;;19.40;93.40;;;;;;5072763;28;20056;-73
2021/09/11 10:03:15;;;;;;;4.88;3.22;;;19.40;93.40;;;;;;5071467;28;20127;-74
2021/09/11 10:05:46;;;;;;;6.82;4.32;;;19.50;93.40;;;;;;5072816;28;20100;-74
2021/09/11 10:08:12;;;;;;;5.63;4.05;;;19.50;93.30;;;;;;5072682;28;20017;-73
2021/09/11 10:10:41;;;;;;;6.30;4.70;;;19.50;93.40;;;;;;5073963;28;20388;-73
2021/09/11 10:13:15;;;;;;;6.03;3.45;;;19.50;93.40;;;;;;5076058;28;20100;-72
2021/09/11 10:15:54;;;;;;;7.07;4.93;;;19.50;93.40;;;;;;5076400;28;20036;-74
2021/09/11 10:18:35;;;;;;;6.83;5.23;;;19.50;93.30;;;;;;5076447;28;20027;-75
2021/09/11 10:21:16;;;;;;;6.47;4.10;;;19.60;93.30;;;;;;5076051;28;20131;-74
2021/09/11 10:24:03;;;;;;;6.15;3.55;;;19.60;93.30;;;;;;5076213;28;20029;-74
2021/09/11 10:26:47;;;;;;;6.22;3.63;;;19.60;93.30;;;;;;5075646;28;20033;-73
2021/09/11 10:29:37;;;;;;;5.63;3.35;;;19.60;93.30;;;;;;5074932;28;20419;-73
2021/09/11 10:32:11;;;;;;;7.18;4.72;;;19.50;93.40;;;;;;5076168;28;20112;-73
2021/09/11 10:35:00;;;;;;;5.57;3.95;;;19.50;93.70;;;;;;5075933;28;20030;-74
2021/09/11 10:37:39;;;;;;;7.30;4.72;;;19.50;93.50;;;;;;5076282;28;20052;-73
2021/09/11 10:40:15;;;;;;;6.75;3.80;;;19.50;93.50;;;;;;5075564;28;20044;-73
2021/09/11 10:43:01;;;;;;;6.10;4.13;;;19.40;93.50;;;;;;5074528;28;20025;-72
2021/09/11 10:45:43;;;;;;;8.07;4.82;;;19.50;93.50;;;;;;5075817;28;20046;-74
2021/09/11 10:48:34;;;;;;;6.45;3.40;;;19.50;93.40;;;;;;5075851;28;20024;-74
2021/09/11 10:51:35;;;;;;;5.15;3.25;;;19.60;93.40;;;;;;5075831;28;20552;-74
2021/09/11 10:54:10;;;;;;;7.05;3.92;;;19.50;93.40;;;;;;5074414;28;20031;-74
2021/09/11 10:56:42;;;;;;;5.65;3.42;;;19.50;93.40;;;;;;5073961;28;20017;-74
2021/09/11 10:59:19;;;;;;;5.50;3.65;;;19.60;93.40;;;;;;5075698;28;20135;-72
2021/09/11 11:01:58;;;;;;;4.72;3.15;;;19.60;93.40;;;;;;5075546;28;20030;-72
2021/09/11 11:04:30;;;;;;;4.85;2.90;;;19.70;93.40;;;;;;5075580;28;20021;-72
2021/09/11 11:06:57;;;;;;;5.25;3.53;;;19.80;93.40;;;;;;5075616;28;20024;-72
2021/09/11 11:09:23;;;;;;;4.38;2.88;;;19.80;93.20;;;;;;5073689;28;20040;-72
2021/09/11 11:11:52;;;;;;;5.28;3.28;;;19.90;93.30;;;;;;5075387;28;20086;-72
2021/09/11 11:14:18;;;;;;;4.47;2.88;;;19.90;93.20;;;;;;5075465;28;20027;-72
2021/09/11 11:16:54;;;;;;;5.75;3.55;;;20.00;93.20;;;;;;5075268;28;20028;-72
2021/09/11 11:19:23;;;;;;;4.97;3.25;;;20.10;93.20;;;;;;5075232;28;20128;-72
2021/09/11 11:21:59;;;;;;;5.93;3.80;;;20.20;93.20;;;;;;5073239;28;20048;-73
2021/09/11 11:24:29;;;;;;;6.00;3.92;;;20.40;93.20;;;;;;5074628;28;20025;-73
2021/09/11 11:26:58;;;;;;;6.13;3.83;;;20.50;93.00;;;;;;5075163;28;20020;-73
2021/09/11 11:29:25;;;;;;;5.32;3.65;;;20.70;93.00;;;;;;5074994;28;20536;-73
2021/09/11 11:31:51;;;;;;;4.78;3.13;;;20.80;92.90;;;;;;5075126;28;20043;-73
2021/09/11 11:34:17;;;;;;;6.13;3.83;;;20.90;92.90;;;;;;5073778;28;20485;-73
2021/09/11 11:37:04;;;;;;;5.90;3.72;;;20.90;92.90;;;;;;5074792;28;20033;-72
2021/09/11 11:39:35;;;;;;;5.93;3.75;;;21.10;92.80;;;;;;5073077;28;20036;-73
2021/09/11 11:42:04;;;;;;;5.13;3.22;;;21.20;92.80;;;;;;5073567;28;20052;-73
2021/09/11 11:44:32;;;;;;;6.30;4.22;;;21.30;92.80;;;;;;5074844;28;20122;-73
2021/09/11 11:47:15;;;;;;;7.57;3.93;;;21.40;92.60;;;;;;5074603;28;20029;-73
2021/09/11 11:49:41;;;;;;;5.53;3.53;;;21.60;92.60;;;;;;5086022;28;20730;-73
2021/09/11 11:52:08;;;;;;;6.72;4.25;;;21.80;92.50;;;;;;5094876;28;20024;-73
2021/09/11 11:54:36;;;;;;;5.78;4.43;;;22.00;92.50;;;;;;5098177;28;20024;-75
2021/09/11 11:57:08;;;;;;;6.50;4.60;;;22.10;92.30;;;;;;5094777;28;20028;-73
2021/09/11 11:59:34;;;;;;;6.32;4.38;;;22.10;92.20;;;;;;5093360;28;20548;-72
2021/09/11 12:01:59;;;;;;;7.07;4.38;;;22.10;92.50;;;;;;5094433;28;20047;-72
2021/09/11 12:04:25;;;;;;;7.72;4.43;;;22.00;92.30;;;;;;5093184;28;20472;-73
2021/09/11 12:06:52;;;;;;;6.75;4.50;;;21.80;92.40;;;;;;5094496;28;20469;-73
2021/09/11 12:09:19;;;;;;;7.30;4.93;;;21.60;92.40;;;;;;5094443;28;20024;-73
2021/09/11 12:11:48;;;;;;;6.00;4.22;;;21.50;92.60;;;;;;5094586;28;20070;-73
2021/09/11 12:14:16;;;;;;;;;;;21.40;92.60;;;;;;5083982;28;20029;-74
2021/09/11 12:16:45;;;;;;;6.40;3.92;;;21.30;92.70;;;;;;5071284;28;19935;-74
2021/09/11 12:19:18;;;;;;;5.20;3.83;;;21.20;92.60;;;;;;5071138;28;20020;-74
2021/09/11 12:21:44;;;;;;;5.82;3.95;;;21.20;92.70;;;;;;5070648;28;20082;-74
2021/09/11 12:24:24;;;;;;;6.68;4.70;;;21.10;92.70;;;;;;5071250;28;20024;-74
2021/09/11 12:26:50;;;;;;;5.72;4.28;;;20.90;92.60;;;;;;5071060;28;20397;-75
2021/09/11 12:29:19;;;;;;;7.05;4.78;;;20.50;92.50;;;;;;5071013;28;20025;-72
2021/09/11 12:31:52;;;;;;;5.43;3.83;;;20.00;93.10;;;;;;5071362;28;20112;-72
2021/09/11 12:34:19;;;;;;;5.78;3.83;;;19.70;93.40;;;;;;5069995;28;20031;-74
2021/09/11 12:36:47;;;;;;;4.28;2.90;;;19.50;93.70;;;;;;5070683;28;20025;-73
2021/09/11 12:39:16;;;;;;;5.15;3.05;;;19.40;93.90;;;;;;5100758;28;20024;-73
2021/09/11 12:41:49;;;;;;;4.37;2.97;;;19.30;94.00;;;;;;5091046;28;20024;-73
2021/09/11 12:44:18;;;;;;;4.75;3.63;;;19.30;93.90;;;;;;5090728;28;20024;-72
2021/09/11 12:46:53;;;;;;;4.13;2.60;;;19.20;93.70;;;;;;5089835;28;20111;-72
2021/09/11 12:49:20;;;;;;;4.47;2.80;;;19.10;93.80;;;;;;5090983;28;20028;-72
2021/09/11 12:51:47;;;;;;;4.28;2.60;;;19.20;94.00;;;;;;5090771;28;20043;-72